Lilongwe, Malawi
Current Conditions -  °F | °C
As of 6:00 PM on Thursday 27 Nov 2014 (Local Time) from FWKI Reporting Station
Clear Clear  
Wind Chill: 81°   Ceiling: Unl
Heat Index: 81°   Visibility: 6mi
Dew Point: 57°   Wind: 8mph
Humidity: 45%   Direction: 70°ENE
Pressure: 29.94"   Gusts: NA
Location:  13.97°S, 33.8°E
Report Text: FWKI 271600Z 07007KT CAVOK 27/14 Q1014
Loading
Personal Weather Stations






























Interactive Weather Map New forecast layout! Learn more

10-Day Weather Forecast

Advertisements
Track Severe Weather on mobile